createdAt,value
2018-06-27T00:00:57.533Z,19.00
2018-06-27T00:01:57.554Z,18.50
2018-06-27T00:02:57.572Z,18.60
2018-06-27T00:03:57.591Z,19.20
2018-06-27T00:04:57.612Z,18.90
2018-06-27T00:05:57.632Z,18.90
2018-06-27T00:06:57.651Z,18.40
2018-06-27T00:07:57.667Z,18.60
2018-06-27T00:08:57.690Z,18.90
2018-06-27T00:09:57.709Z,19.50
2018-06-27T00:10:57.728Z,19.00
2018-06-27T00:12:00.804Z,18.80
2018-06-27T00:12:57.771Z,19.10
2018-06-27T00:13:57.784Z,19.10
2018-06-27T00:14:57.807Z,18.10
2018-06-27T00:15:57.825Z,19.00
2018-06-27T00:16:57.842Z,18.40
2018-06-27T00:17:57.864Z,19.40
2018-06-27T00:18:57.882Z,19.00
2018-06-27T00:19:57.901Z,18.50
2018-06-27T00:20:57.923Z,18.80
2018-06-27T00:21:57.939Z,19.50
2018-06-27T00:22:57.959Z,18.70
2018-06-27T00:23:57.980Z,19.50
2018-06-27T00:24:57.997Z,18.70
2018-06-27T00:25:58.023Z,19.40
2018-06-27T00:26:58.037Z,19.20
2018-06-27T00:27:58.059Z,20.00
2018-06-27T00:28:58.078Z,19.50
2018-06-27T00:29:58.095Z,19.40
2018-06-27T00:30:58.115Z,20.30
2018-06-27T00:31:58.133Z,19.70
2018-06-27T00:32:58.155Z,18.60
2018-06-27T00:33:58.384Z,19.70
2018-06-27T00:34:58.198Z,19.90
2018-06-27T00:35:58.211Z,19.50
2018-06-27T00:36:58.231Z,19.90
2018-06-27T00:37:58.250Z,21.00
2018-06-27T00:38:58.269Z,21.10
2018-06-27T00:39:58.290Z,20.70
2018-06-27T00:40:58.311Z,22.00
2018-06-27T00:41:58.330Z,21.40
2018-06-27T00:42:58.347Z,21.80
2018-06-27T00:43:58.368Z,20.60
2018-06-27T00:44:58.389Z,21.50
2018-06-27T00:45:58.407Z,20.20
2018-06-27T00:46:58.428Z,20.80
2018-06-27T00:47:58.444Z,20.70
2018-06-27T00:48:58.462Z,21.30
2018-06-27T00:49:58.487Z,21.40
2018-06-27T00:50:58.506Z,21.80
2018-06-27T00:51:58.519Z,21.00
2018-06-27T00:52:58.538Z,20.90
2018-06-27T00:53:58.562Z,20.90
2018-06-27T00:54:58.581Z,21.00
2018-06-27T00:55:58.597Z,19.90
2018-06-27T00:56:58.620Z,20.30
2018-06-27T00:57:58.639Z,20.80
2018-06-27T00:58:58.656Z,20.80
2018-06-27T00:59:58.677Z,20.40
2018-06-27T01:00:58.697Z,20.30
2018-06-27T01:01:58.716Z,20.50
2018-06-27T01:02:58.732Z,19.90
2018-06-27T01:03:58.752Z,19.40
2018-06-27T01:04:58.772Z,19.30
2018-06-27T01:05:58.790Z,19.60
2018-06-27T01:06:58.809Z,19.10
2018-06-27T01:07:58.830Z,19.40
2018-06-27T01:08:58.847Z,19.40
2018-06-27T01:09:58.872Z,19.10
2018-06-27T01:10:58.886Z,19.20
2018-06-27T01:11:58.904Z,19.90
2018-06-27T01:12:58.924Z,18.70
2018-06-27T01:13:58.947Z,19.10
2018-06-27T01:14:58.967Z,19.90
2018-06-27T01:15:58.983Z,20.00
2018-06-27T01:16:59.001Z,20.10
2018-06-27T01:17:59.022Z,18.40
2018-06-27T01:18:59.039Z,20.80
2018-06-27T01:19:59.061Z,19.80
2018-06-27T01:20:59.079Z,20.70
2018-06-27T01:21:59.098Z,20.20
2018-06-27T01:22:59.116Z,19.80
2018-06-27T01:23:59.137Z,18.90
2018-06-27T01:24:59.157Z,19.80
2018-06-27T01:25:59.176Z,19.70
2018-06-27T01:26:59.193Z,20.40
2018-06-27T01:27:59.214Z,20.60
2018-06-27T01:28:59.235Z,19.80
2018-06-27T01:29:59.250Z,20.10
2018-06-27T01:30:59.271Z,19.20
2018-06-27T01:31:59.288Z,20.80
2018-06-27T01:32:59.309Z,19.60
2018-06-27T01:33:59.331Z,19.20
2018-06-27T01:34:59.345Z,20.40
2018-06-27T01:35:59.367Z,19.50
2018-06-27T01:36:59.389Z,19.60
2018-06-27T01:37:59.403Z,19.60
2018-06-27T01:38:59.423Z,19.00
2018-06-27T01:39:59.444Z,19.40
2018-06-27T01:40:59.460Z,19.00
2018-06-27T01:41:59.483Z,18.90
2018-06-27T01:42:59.499Z,19.60
2018-06-27T01:43:59.521Z,18.90
2018-06-27T01:44:59.537Z,19.30
2018-06-27T01:45:59.558Z,18.20
2018-06-27T01:46:59.578Z,19.60
2018-06-27T01:47:59.597Z,18.50
2018-06-27T01:48:59.616Z,19.00
2018-06-27T01:49:59.639Z,18.60
2018-06-27T01:50:59.655Z,19.30
2018-06-27T01:51:59.674Z,19.50
2018-06-27T01:52:59.692Z,18.60
2018-06-27T01:53:59.711Z,19.60
2018-06-27T01:54:59.727Z,19.20
2018-06-27T01:55:59.750Z,19.50
2018-06-27T01:56:59.767Z,20.00
2018-06-27T01:57:59.787Z,19.00
2018-06-27T01:58:59.807Z,19.10
2018-06-27T01:59:59.826Z,20.00
2018-06-27T02:00:59.841Z,19.60
2018-06-27T02:01:59.862Z,19.60
2018-06-27T02:02:59.880Z,19.00
2018-06-27T02:03:59.897Z,18.80
2018-06-27T02:04:59.926Z,19.10
2018-06-27T02:05:59.942Z,19.70
2018-06-27T02:06:59.959Z,18.30
2018-06-27T02:07:59.976Z,19.40
2018-06-27T02:08:59.996Z,19.50
2018-06-27T02:10:00.028Z,19.90
2018-06-27T02:11:00.037Z,19.30
2018-06-27T02:12:00.054Z,19.60
2018-06-27T02:13:00.070Z,19.80
2018-06-27T02:14:00.092Z,18.90
2018-06-27T02:15:00.112Z,19.90
2018-06-27T02:16:00.129Z,19.50
2018-06-27T02:17:00.147Z,19.30
2018-06-27T02:18:00.167Z,18.70
2018-06-27T02:19:00.188Z,19.30
2018-06-27T02:20:00.202Z,18.90
2018-06-27T02:21:00.224Z,20.00
2018-06-27T02:22:00.243Z,19.70
2018-06-27T02:23:00.260Z,19.80
2018-06-27T02:24:00.280Z,19.80
2018-06-27T02:25:00.299Z,20.00
2018-06-27T02:26:00.317Z,19.60
2018-06-27T02:27:00.339Z,19.40
2018-06-27T02:28:00.354Z,19.50
2018-06-27T02:29:00.375Z,19.10
2018-06-27T02:30:00.396Z,20.40
2018-06-27T02:31:00.412Z,19.10
2018-06-27T02:32:00.432Z,19.90
2018-06-27T02:33:00.454Z,20.20
2018-06-27T02:34:00.471Z,20.10
2018-06-27T02:35:00.490Z,19.90
2018-06-27T02:36:00.508Z,20.40
2018-06-27T02:37:00.526Z,20.80
2018-06-27T02:38:00.550Z,20.50
2018-06-27T02:39:00.566Z,21.70
2018-06-27T02:40:00.581Z,20.30
2018-06-27T02:41:00.604Z,20.80
2018-06-27T02:42:00.622Z,20.10
2018-06-27T02:43:00.641Z,20.40
2018-06-27T02:44:00.657Z,20.30
2018-06-27T02:45:00.676Z,20.70
2018-06-27T02:46:00.696Z,21.80
2018-06-27T02:47:00.718Z,21.50
2018-06-27T02:48:00.732Z,20.30
2018-06-27T02:49:00.751Z,21.50
2018-06-27T02:50:00.776Z,21.80
2018-06-27T02:51:00.790Z,20.90
2018-06-27T02:52:00.809Z,21.80
2018-06-27T02:53:00.832Z,21.80
2018-06-27T02:54:00.848Z,20.70
2018-06-27T02:55:00.870Z,21.20
2018-06-27T02:56:00.886Z,21.10
2018-06-27T02:57:00.903Z,21.60
2018-06-27T02:58:00.922Z,22.90
2018-06-27T02:59:00.943Z,22.00
2018-06-27T03:00:00.961Z,21.30
2018-06-27T03:01:00.977Z,21.50
2018-06-27T03:02:00.997Z,21.20
2018-06-27T03:03:01.020Z,20.80
2018-06-27T03:04:01.036Z,21.10
2018-06-27T03:05:01.056Z,20.50
2018-06-27T03:06:01.072Z,21.30
2018-06-27T03:07:01.095Z,21.90
2018-06-27T03:08:01.109Z,22.20
2018-06-27T03:09:01.129Z,22.60
2018-06-27T03:10:01.150Z,21.90
2018-06-27T03:11:01.169Z,21.80
2018-06-27T03:12:01.187Z,21.30
2018-06-27T03:13:01.207Z,21.00
2018-06-27T03:14:01.227Z,20.60
2018-06-27T03:15:01.244Z,20.50
2018-06-27T03:16:01.259Z,21.00
2018-06-27T03:17:01.285Z,20.90
2018-06-27T03:18:01.304Z,21.80
2018-06-27T03:19:01.317Z,21.60
2018-06-27T03:20:01.343Z,21.60
2018-06-27T03:21:01.360Z,21.70
2018-06-27T03:22:01.376Z,21.70
2018-06-27T03:23:01.394Z,21.70
2018-06-27T03:24:01.413Z,22.60
2018-06-27T03:25:01.428Z,22.00
2018-06-27T03:26:01.449Z,21.80
2018-06-27T03:27:01.465Z,22.20
2018-06-27T03:28:01.487Z,22.40
2018-06-27T03:29:01.511Z,22.00
2018-06-27T03:30:01.529Z,21.80
2018-06-27T03:31:01.551Z,21.10
2018-06-27T03:32:01.565Z,22.20
2018-06-27T03:33:01.582Z,22.70
2018-06-27T03:34:01.602Z,21.80
2018-06-27T03:35:01.625Z,22.80
2018-06-27T03:36:01.637Z,21.20
2018-06-27T03:37:01.656Z,23.00
2018-06-27T03:38:01.675Z,21.60
2018-06-27T03:39:01.696Z,21.90
2018-06-27T03:40:01.710Z,22.20
2018-06-27T03:41:01.733Z,22.30
2018-06-27T03:42:01.751Z,22.10
2018-06-27T03:43:01.768Z,22.30
2018-06-27T03:44:01.784Z,22.40
2018-06-27T03:45:01.808Z,22.50
2018-06-27T03:46:01.824Z,21.60
2018-06-27T03:47:01.842Z,21.40
2018-06-27T03:48:01.862Z,21.20
2018-06-27T03:49:01.882Z,21.90
2018-06-27T03:50:01.897Z,22.30
2018-06-27T03:51:01.919Z,23.30
2018-06-27T03:52:01.937Z,21.80
2018-06-27T03:53:01.954Z,22.20
2018-06-27T03:54:01.977Z,21.60
2018-06-27T03:55:01.994Z,21.80
2018-06-27T03:56:02.015Z,21.70
2018-06-27T03:57:02.029Z,21.90
2018-06-27T03:58:02.049Z,22.10
2018-06-27T03:59:02.139Z,21.50
2018-06-27T04:00:02.086Z,22.60
2018-06-27T04:01:02.104Z,21.70
2018-06-27T04:02:02.124Z,22.70
2018-06-27T04:03:02.146Z,22.90
2018-06-27T04:04:02.160Z,22.20
2018-06-27T04:05:02.185Z,21.20
2018-06-27T04:06:02.199Z,22.20
2018-06-27T04:07:02.221Z,22.30
2018-06-27T04:08:02.239Z,22.60
2018-06-27T04:09:02.257Z,21.70
2018-06-27T04:10:02.274Z,21.40
2018-06-27T04:11:02.299Z,22.30
2018-06-27T04:12:02.314Z,21.30
2018-06-27T04:13:02.488Z,22.20
2018-06-27T04:14:02.348Z,22.40
2018-06-27T04:15:02.373Z,21.60
2018-06-27T04:16:02.388Z,21.60
2018-06-27T04:17:02.406Z,22.00
2018-06-27T04:18:02.425Z,21.60
2018-06-27T04:19:02.446Z,22.90
2018-06-27T04:20:02.476Z,21.90
2018-06-27T04:21:02.510Z,21.40
2018-06-27T04:22:02.502Z,21.70
2018-06-27T04:23:02.520Z,22.00
2018-06-27T04:24:02.540Z,22.40
2018-06-27T04:25:02.559Z,21.80
2018-06-27T04:26:02.575Z,22.10
2018-06-27T04:27:02.597Z,22.60
2018-06-27T04:28:02.615Z,21.50
2018-06-27T04:29:02.634Z,21.40
2018-06-27T04:30:02.653Z,22.80
2018-06-27T04:31:02.670Z,21.80
2018-06-27T04:32:02.689Z,21.90
2018-06-27T04:33:02.709Z,21.80
2018-06-27T04:34:02.725Z,22.00
2018-06-27T04:35:02.749Z,21.20
2018-06-27T04:36:02.791Z,21.70
2018-06-27T04:37:02.782Z,22.50
2018-06-27T04:38:02.802Z,21.10
2018-06-27T04:39:02.821Z,22.70
2018-06-27T04:40:02.843Z,22.00
2018-06-27T04:41:02.862Z,22.60
2018-06-27T04:42:02.881Z,22.30
2018-06-27T04:43:02.915Z,22.20
2018-06-27T04:44:02.916Z,21.70
2018-06-27T04:45:02.937Z,22.50
2018-06-27T04:46:02.956Z,21.20
2018-06-27T04:47:02.975Z,21.00
2018-06-27T04:48:02.995Z,21.40
2018-06-27T04:49:03.013Z,21.60
2018-06-27T04:50:03.030Z,22.00
2018-06-27T04:51:03.055Z,21.80
2018-06-27T04:52:03.068Z,21.80
2018-06-27T04:53:03.087Z,21.40
2018-06-27T04:54:03.109Z,21.30
2018-06-27T04:55:03.127Z,20.50
2018-06-27T04:56:03.145Z,20.60
2018-06-27T04:57:03.164Z,21.40
2018-06-27T04:58:03.185Z,19.80
2018-06-27T04:59:03.203Z,19.70
2018-06-27T05:00:03.221Z,19.70
2018-06-27T05:01:03.242Z,19.70
2018-06-27T05:02:03.263Z,19.60
2018-06-27T05:03:03.280Z,19.10
2018-06-27T05:04:03.301Z,19.10
2018-06-27T05:05:03.320Z,18.60
2018-06-27T05:06:03.339Z,18.80
2018-06-27T05:07:03.360Z,19.20
2018-06-27T05:08:03.375Z,19.60
2018-06-27T05:09:03.396Z,17.80
2018-06-27T05:10:03.416Z,18.60
2018-06-27T05:11:03.439Z,17.70
2018-06-27T05:12:03.460Z,18.10
2018-06-27T05:13:03.476Z,18.70
2018-06-27T05:14:03.497Z,17.40
2018-06-27T05:15:03.512Z,18.00
2018-06-27T05:16:03.579Z,18.90
2018-06-27T05:17:03.554Z,17.70
2018-06-27T05:18:03.573Z,17.80
2018-06-27T05:19:03.595Z,18.50
2018-06-27T05:20:03.614Z,17.20
2018-06-27T05:21:03.631Z,17.80
2018-06-27T05:22:03.652Z,18.20
2018-06-27T05:23:03.674Z,17.60
2018-06-27T05:24:03.692Z,18.00
2018-06-27T05:25:03.710Z,16.90
2018-06-27T05:26:03.733Z,17.50
2018-06-27T05:27:03.752Z,16.30
2018-06-27T05:28:03.771Z,17.50
2018-06-27T05:29:03.789Z,17.10
2018-06-27T05:30:03.810Z,17.00
2018-06-27T05:31:03.832Z,17.30
2018-06-27T05:32:03.853Z,17.30
2018-06-27T05:33:03.871Z,16.90
2018-06-27T05:34:03.892Z,16.60
2018-06-27T05:35:03.911Z,16.70
2018-06-27T05:36:03.934Z,16.20
2018-06-27T05:37:03.952Z,16.50
2018-06-27T05:38:03.975Z,16.60
2018-06-27T05:39:03.992Z,17.00
2018-06-27T05:40:04.035Z,16.60
2018-06-27T05:41:04.035Z,16.90
2018-06-27T05:42:04.056Z,16.80
2018-06-27T05:43:04.074Z,16.40
2018-06-27T05:44:04.096Z,15.70
2018-06-27T05:45:04.119Z,16.60
2018-06-27T05:46:04.138Z,16.60
2018-06-27T05:47:04.161Z,15.90
2018-06-27T05:48:04.178Z,15.10
2018-06-27T05:49:04.199Z,15.80
2018-06-27T05:50:04.220Z,16.30
2018-06-27T05:51:04.243Z,16.40
2018-06-27T05:52:04.260Z,15.90
2018-06-27T05:53:04.282Z,16.40
2018-06-27T05:54:04.306Z,15.60
2018-06-27T05:55:04.325Z,16.50
2018-06-27T05:56:04.345Z,15.70
2018-06-27T05:57:04.368Z,15.30
2018-06-27T05:58:04.405Z,15.40
2018-06-27T05:59:04.412Z,16.00
2018-06-27T06:00:04.433Z,16.20
2018-06-27T06:01:04.452Z,15.00
2018-06-27T06:02:04.475Z,15.60
2018-06-27T06:03:04.496Z,16.50
2018-06-27T06:04:04.518Z,15.20
2018-06-27T06:05:04.538Z,15.60
2018-06-27T06:06:04.559Z,15.50
2018-06-27T06:07:04.581Z,15.60
2018-06-27T06:08:04.604Z,14.80
2018-06-27T06:09:04.621Z,15.10
2018-06-27T06:10:04.644Z,15.20
2018-06-27T06:11:04.669Z,15.70
2018-06-27T06:12:04.689Z,15.40
2018-06-27T06:13:04.713Z,14.70
2018-06-27T06:14:04.732Z,15.20
2018-06-27T06:15:04.756Z,14.20
2018-06-27T06:16:04.776Z,14.70
2018-06-27T06:17:04.799Z,15.60
2018-06-27T06:18:04.817Z,14.20
2018-06-27T06:19:04.840Z,14.60
2018-06-27T06:20:04.864Z,14.50
2018-06-27T06:21:04.884Z,14.60
2018-06-27T06:22:04.909Z,14.50
2018-06-27T06:23:04.929Z,14.20
2018-06-27T06:24:04.949Z,14.10
2018-06-27T06:25:04.975Z,13.70
2018-06-27T06:26:04.995Z,13.70
2018-06-27T06:27:05.020Z,13.10
2018-06-27T06:28:05.039Z,13.90
2018-06-27T06:29:05.064Z,13.60
2018-06-27T06:30:05.088Z,13.00
2018-06-27T06:31:05.110Z,13.20
2018-06-27T06:32:05.141Z,12.60
2018-06-27T06:33:05.156Z,13.00
2018-06-27T06:34:05.176Z,12.90
2018-06-27T06:35:05.199Z,12.70
2018-06-27T06:36:05.219Z,13.00
2018-06-27T06:37:05.242Z,13.10
2018-06-27T06:38:05.270Z,12.30
2018-06-27T06:39:05.293Z,12.90
2018-06-27T06:40:05.311Z,12.50
2018-06-27T06:41:05.336Z,12.50
2018-06-27T06:42:05.359Z,12.90
2018-06-27T06:43:05.380Z,12.30
2018-06-27T06:44:05.402Z,12.30
2018-06-27T06:45:05.427Z,12.10
2018-06-27T06:46:05.483Z,12.00
2018-06-27T06:47:05.475Z,12.50
2018-06-27T06:48:05.495Z,12.10
2018-06-27T06:49:05.523Z,12.60
2018-06-27T06:50:05.546Z,13.30
2018-06-27T06:51:05.570Z,12.40
2018-06-27T06:52:05.639Z,12.10
2018-06-27T06:53:05.615Z,12.50
2018-06-27T06:54:05.640Z,13.20
2018-06-27T06:55:05.665Z,13.80
2018-06-27T06:56:05.685Z,12.40
2018-06-27T06:57:05.709Z,12.70
2018-06-27T06:58:05.735Z,12.50
2018-06-27T06:59:05.760Z,12.10
2018-06-27T07:00:05.781Z,12.00
2018-06-27T07:01:05.808Z,13.10
2018-06-27T07:02:05.832Z,13.00
2018-06-27T07:03:05.855Z,13.00
2018-06-27T07:04:05.880Z,13.80
2018-06-27T07:05:05.904Z,13.00
2018-06-27T07:06:05.928Z,13.10
2018-06-27T07:07:05.954Z,14.00
2018-06-27T07:08:05.979Z,13.30
2018-06-27T07:09:06.003Z,13.30
2018-06-27T07:10:06.025Z,13.10
2018-06-27T07:11:06.125Z,13.00
2018-06-27T07:12:06.076Z,12.80
2018-06-27T07:13:06.099Z,12.60
2018-06-27T07:14:06.124Z,11.90
2018-06-27T07:15:06.152Z,11.50
2018-06-27T07:16:06.178Z,11.90
2018-06-27T07:17:06.199Z,11.70
2018-06-27T07:18:06.227Z,11.30
2018-06-27T07:19:06.254Z,11.70
2018-06-27T07:20:06.279Z,11.80
2018-06-27T07:21:06.303Z,12.10
2018-06-27T07:22:06.328Z,11.70
2018-06-27T07:23:06.354Z,11.00
2018-06-27T07:24:06.379Z,11.50
2018-06-27T07:25:06.406Z,10.30
2018-06-27T07:26:06.432Z,10.90
2018-06-27T07:27:06.455Z,11.10
2018-06-27T07:28:06.480Z,10.40
2018-06-27T07:29:06.506Z,10.70
2018-06-27T07:30:06.536Z,10.70
2018-06-27T07:31:06.559Z,10.90
2018-06-27T07:32:06.586Z,10.40
2018-06-27T07:33:06.613Z,11.20
2018-06-27T07:34:06.642Z,10.20
2018-06-27T07:35:06.664Z,10.50
2018-06-27T07:36:06.836Z,10.60
2018-06-27T07:37:06.718Z,10.00
2018-06-27T07:38:06.745Z,10.30
2018-06-27T07:39:06.773Z,10.30
2018-06-27T07:40:06.796Z,10.00
2018-06-27T07:41:06.823Z,10.10
2018-06-27T07:42:06.858Z,10.10
2018-06-27T07:43:06.878Z,10.50
2018-06-27T07:44:06.906Z,9.90
2018-06-27T07:45:06.930Z,10.20
2018-06-27T07:46:06.957Z,9.80
2018-06-27T07:47:06.991Z,10.20
2018-06-27T07:48:07.012Z,10.40
2018-06-27T07:49:07.040Z,9.80
2018-06-27T07:50:07.064Z,10.50
2018-06-27T07:51:07.092Z,10.10
2018-06-27T07:52:07.119Z,10.30
2018-06-27T07:53:07.149Z,9.70
2018-06-27T07:54:07.176Z,9.70
2018-06-27T07:55:07.259Z,9.40
2018-06-27T07:56:07.229Z,9.60
2018-06-27T07:57:07.257Z,10.60
2018-06-27T07:58:07.285Z,10.20
2018-06-27T07:59:07.309Z,9.70
2018-06-27T08:00:07.336Z,9.30
2018-06-27T08:01:07.364Z,9.50
2018-06-27T08:02:07.392Z,10.20
2018-06-27T08:03:07.424Z,9.90
2018-06-27T08:04:07.448Z,10.30
2018-06-27T08:05:07.478Z,10.00
2018-06-27T08:06:07.507Z,9.70
2018-06-27T08:07:07.533Z,9.30
2018-06-27T08:08:07.559Z,9.70
2018-06-27T08:09:07.587Z,8.80
2018-06-27T08:10:07.727Z,9.20
2018-06-27T08:11:07.647Z,9.70
2018-06-27T08:12:07.685Z,9.40
2018-06-27T08:13:07.701Z,9.30
2018-06-27T08:14:07.729Z,9.00
2018-06-27T08:15:07.766Z,8.70
2018-06-27T08:16:07.787Z,9.40
2018-06-27T08:17:07.815Z,9.70
2018-06-27T08:18:07.906Z,9.50
2018-06-27T08:19:07.871Z,9.40
2018-06-27T08:20:07.903Z,9.60
2018-06-27T08:21:07.925Z,9.70
2018-06-27T08:22:07.956Z,10.40
2018-06-27T08:23:07.987Z,10.20
2018-06-27T08:24:08.012Z,9.90
2018-06-27T08:25:08.038Z,9.80
2018-06-27T08:26:08.137Z,8.90
2018-06-27T08:27:08.099Z,9.90
2018-06-27T08:28:08.125Z,10.20
2018-06-27T08:29:08.150Z,9.40
2018-06-27T08:30:08.180Z,12.80
2018-06-27T08:31:08.213Z,17.40
2018-06-27T08:32:08.236Z,12.70
2018-06-27T08:33:08.262Z,8.70
2018-06-27T08:34:08.291Z,8.60
2018-06-27T08:35:08.324Z,8.70
2018-06-27T08:36:08.347Z,8.50
2018-06-27T08:37:08.382Z,8.30
2018-06-27T08:38:08.407Z,8.70
2018-06-27T08:39:08.437Z,9.00
2018-06-27T08:40:08.467Z,8.90
2018-06-27T08:41:08.494Z,9.40
2018-06-27T08:42:08.523Z,8.20
2018-06-27T08:43:08.549Z,8.60
2018-06-27T08:44:08.580Z,8.60
2018-06-27T08:45:08.608Z,8.00
2018-06-27T08:46:08.639Z,8.30
2018-06-27T08:47:08.665Z,8.50
2018-06-27T08:48:08.694Z,7.50
2018-06-27T08:49:08.726Z,7.50
2018-06-27T08:50:08.753Z,8.20
2018-06-27T08:51:08.788Z,7.80
2018-06-27T08:52:08.812Z,7.60
2018-06-27T08:53:08.845Z,8.10
2018-06-27T08:54:08.876Z,8.30
2018-06-27T08:55:08.908Z,7.50
2018-06-27T08:56:08.931Z,7.80
2018-06-27T08:57:08.964Z,7.60
2018-06-27T08:58:08.994Z,7.30
2018-06-27T08:59:09.023Z,7.60
2018-06-27T09:00:09.055Z,7.40
2018-06-27T09:01:09.085Z,7.40
2018-06-27T09:02:09.115Z,8.00
2018-06-27T09:03:09.145Z,7.50
2018-06-27T09:06:09.239Z,6.90
2018-06-27T09:07:09.270Z,6.40
2018-06-27T09:08:09.301Z,6.80
2018-06-27T09:09:09.328Z,6.30
2018-06-27T09:10:09.361Z,6.30
2018-06-27T09:11:09.392Z,6.80
2018-06-27T09:12:09.423Z,6.60
2018-06-27T09:13:09.461Z,6.10
2018-06-27T09:14:09.487Z,6.00
2018-06-27T09:15:09.521Z,6.10
2018-06-27T09:16:10.761Z,6.00
2018-06-27T09:17:09.585Z,6.10
2018-06-27T09:18:09.611Z,5.60
2018-06-27T09:19:09.643Z,6.00
2018-06-27T09:20:09.674Z,7.30
2018-06-27T09:21:09.706Z,6.80
2018-06-27T09:23:09.772Z,6.10
2018-06-27T09:24:09.796Z,6.70
2018-06-27T09:25:09.831Z,6.10
2018-06-27T09:26:09.860Z,5.90
2018-06-27T09:27:09.896Z,6.50
2018-06-27T09:28:09.929Z,6.10
2018-06-27T09:29:09.958Z,6.10
2018-06-27T09:30:09.989Z,6.70
2018-06-27T09:31:10.048Z,6.10
2018-06-27T09:32:10.051Z,6.40
2018-06-27T09:33:10.088Z,6.10
2018-06-27T09:34:10.213Z,6.60
2018-06-27T09:35:10.149Z,6.60
2018-06-27T09:36:10.180Z,6.30
2018-06-27T09:37:10.208Z,6.00
2018-06-27T09:38:10.243Z,5.90
2018-06-27T09:39:10.277Z,6.00
2018-06-27T09:40:10.303Z,6.20
2018-06-27T09:41:10.339Z,5.70
2018-06-27T09:42:10.367Z,5.70
2018-06-27T09:43:10.402Z,5.30
2018-06-27T09:44:10.428Z,5.30
2018-06-27T09:45:10.462Z,5.70
2018-06-27T09:46:10.495Z,5.40
2018-06-27T09:47:10.528Z,5.50
2018-06-27T09:48:10.560Z,5.60
2018-06-27T09:49:10.593Z,5.60
2018-06-27T09:50:10.618Z,6.10
2018-06-27T09:51:10.651Z,5.50
2018-06-27T09:52:10.683Z,5.50
2018-06-27T09:53:10.713Z,5.60
2018-06-27T09:54:10.746Z,5.20
2018-06-27T09:55:10.776Z,5.90
2018-06-27T09:56:10.805Z,5.80
2018-06-27T09:57:10.877Z,5.90
2018-06-27T09:58:10.870Z,6.40
2018-06-27T09:59:10.905Z,5.70
2018-06-27T10:00:10.933Z,5.10
2018-06-27T10:01:10.962Z,5.50
2018-06-27T10:02:11.051Z,5.30
2018-06-27T10:03:11.029Z,5.60
2018-06-27T10:04:11.059Z,5.90
2018-06-27T10:05:11.088Z,5.90
2018-06-27T10:06:11.122Z,4.80
2018-06-27T10:07:11.151Z,5.20
2018-06-27T10:08:11.182Z,5.60
2018-06-27T10:10:11.250Z,5.20
2018-06-27T10:11:11.280Z,5.70
2018-06-27T10:12:11.311Z,5.90
2018-06-27T10:13:11.403Z,4.90
2018-06-27T10:14:11.373Z,5.00
2018-06-27T10:15:11.405Z,4.80
2018-06-27T10:16:11.436Z,4.60
2018-06-27T10:17:11.536Z,5.30
2018-06-27T10:18:11.499Z,5.00
2018-06-27T10:19:11.532Z,4.90
2018-06-27T10:20:11.560Z,4.40
2018-06-27T10:21:11.595Z,4.40
2018-06-27T10:22:11.629Z,4.90
2018-06-27T10:23:11.657Z,4.60
2018-06-27T10:24:11.689Z,5.20
2018-06-27T10:25:11.719Z,4.60
2018-06-27T10:26:11.756Z,4.70
2018-06-27T10:27:11.788Z,4.60
2018-06-27T10:28:11.816Z,4.30
2018-06-27T10:29:11.846Z,4.40
2018-06-27T10:30:11.882Z,4.10
2018-06-27T10:31:11.912Z,3.90
2018-06-27T10:32:11.941Z,3.80
2018-06-27T10:33:11.977Z,3.80
2018-06-27T10:34:12.005Z,3.60
2018-06-27T10:35:12.037Z,3.70
2018-06-27T10:36:12.076Z,3.60
2018-06-27T10:37:12.103Z,4.30
2018-06-27T10:38:12.136Z,4.00
2018-06-27T10:39:12.167Z,4.40
2018-06-27T10:40:12.199Z,3.90
2018-06-27T10:41:12.230Z,4.50
2018-06-27T10:42:12.265Z,4.10
2018-06-27T10:43:12.296Z,3.90
2018-06-27T10:44:12.328Z,4.00
2018-06-27T10:45:12.358Z,4.10
2018-06-27T10:46:12.389Z,3.80
2018-06-27T10:47:12.422Z,4.10
2018-06-27T10:48:12.455Z,3.40
2018-06-27T10:49:12.488Z,3.60
2018-06-27T10:50:12.518Z,4.20
2018-06-27T10:51:12.553Z,3.50
2018-06-27T10:52:12.586Z,4.00
2018-06-27T10:53:12.616Z,3.50
2018-06-27T10:54:12.646Z,4.30
2018-06-27T10:55:12.680Z,4.00
2018-06-27T10:56:12.713Z,3.80
2018-06-27T10:57:12.744Z,3.60
2018-06-27T10:58:12.774Z,3.80
2018-06-27T10:59:12.808Z,4.00
2018-06-27T11:00:12.840Z,4.10
2018-06-27T11:01:12.877Z,4.10
2018-06-27T11:02:12.904Z,3.60
2018-06-27T11:03:12.938Z,3.50
2018-06-27T11:04:12.966Z,3.60
2018-06-27T11:05:13.038Z,3.10
2018-06-27T11:06:13.031Z,3.20
2018-06-27T11:07:13.059Z,2.90
2018-06-27T11:08:13.091Z,2.50
2018-06-27T11:09:13.124Z,2.60
2018-06-27T11:10:13.158Z,2.90
2018-06-27T11:11:13.195Z,3.00
2018-06-27T11:12:13.219Z,2.90
2018-06-27T11:13:13.251Z,3.40
2018-06-27T11:14:13.315Z,3.60
2018-06-27T11:15:13.320Z,2.60
2018-06-27T11:16:13.350Z,2.40
2018-06-27T11:17:13.383Z,2.50
2018-06-27T11:18:13.408Z,2.60
2018-06-27T11:19:13.443Z,2.70
2018-06-27T11:20:13.474Z,2.30
2018-06-27T11:21:13.507Z,2.20
2018-06-27T11:22:13.555Z,2.20
2018-06-27T11:23:13.572Z,5.30
2018-06-27T11:24:13.598Z,3.40
2018-06-27T11:25:13.635Z,3.60
2018-06-27T11:26:13.668Z,2.10
2018-06-27T11:27:13.695Z,2.50
2018-06-27T11:28:13.725Z,2.10
2018-06-27T11:29:13.760Z,3.80
2018-06-27T11:30:13.791Z,2.20
2018-06-27T11:31:13.822Z,2.20
2018-06-27T11:32:13.852Z,2.30
2018-06-27T11:33:13.883Z,2.20
2018-06-27T11:34:13.915Z,2.00
2018-06-27T11:35:13.949Z,2.10
2018-06-27T11:36:13.977Z,2.00
2018-06-27T11:37:14.011Z,2.20
2018-06-27T11:38:14.042Z,2.50
2018-06-27T11:39:14.074Z,2.20
2018-06-27T11:40:14.105Z,2.40
2018-06-27T11:41:14.137Z,2.50
2018-06-27T11:42:14.168Z,2.40
2018-06-27T11:43:14.267Z,2.30
2018-06-27T11:44:14.227Z,1.90
2018-06-27T11:45:14.258Z,2.00
2018-06-27T11:46:14.292Z,2.10
2018-06-27T11:47:14.320Z,2.20
2018-06-27T11:48:14.351Z,2.10
2018-06-27T11:49:14.385Z,2.00
2018-06-27T11:50:14.416Z,2.10
2018-06-27T11:51:14.446Z,2.20
2018-06-27T11:52:14.475Z,2.20
2018-06-27T11:53:14.545Z,2.10
2018-06-27T11:54:14.540Z,1.90
2018-06-27T11:55:14.569Z,1.70
2018-06-27T11:56:14.604Z,1.90
2018-06-27T11:57:14.631Z,2.00
2018-06-27T11:58:14.662Z,1.80
2018-06-27T11:59:14.696Z,2.00
2018-06-27T12:00:14.724Z,2.10
2018-06-27T12:01:14.756Z,1.90
2018-06-27T12:02:14.789Z,2.00
2018-06-27T12:03:14.821Z,2.00
2018-06-27T12:04:14.848Z,2.20
2018-06-27T12:05:14.882Z,2.20
2018-06-27T12:06:14.910Z,1.90
2018-06-27T12:07:14.944Z,1.80
2018-06-27T12:08:14.972Z,1.70
2018-06-27T12:09:15.006Z,1.70
2018-06-27T12:10:15.038Z,1.90
2018-06-27T12:11:15.070Z,1.90
2018-06-27T12:12:15.095Z,2.00
2018-06-27T12:13:15.129Z,1.80
2018-06-27T12:14:15.158Z,2.30
2018-06-27T12:15:15.192Z,1.60
2018-06-27T12:16:15.221Z,1.80
2018-06-27T12:17:15.250Z,1.80
2018-06-27T12:18:15.284Z,1.80
2018-06-27T12:19:15.313Z,1.80
2018-06-27T12:20:15.348Z,2.00
2018-06-27T12:21:15.375Z,2.00
2018-06-27T12:22:15.406Z,1.90
2018-06-27T12:23:15.434Z,2.00
2018-06-27T12:24:15.467Z,2.20
2018-06-27T12:25:15.497Z,1.70
2018-06-27T12:26:15.528Z,2.00
2018-06-27T12:27:15.555Z,1.80
2018-06-27T12:28:15.590Z,2.60
2018-06-27T12:29:15.617Z,4.60
2018-06-27T12:30:15.644Z,5.10
2018-06-27T12:31:15.677Z,2.10
2018-06-27T12:32:15.705Z,2.20
2018-06-27T12:33:15.735Z,2.00
2018-06-27T12:34:15.762Z,2.00
2018-06-27T12:35:15.792Z,2.10
2018-06-27T12:36:15.823Z,1.90
2018-06-27T12:37:15.852Z,1.70
2018-06-27T12:38:15.881Z,2.10
2018-06-27T12:39:15.908Z,1.90
2018-06-27T12:40:15.944Z,2.00
2018-06-27T12:41:15.969Z,2.10
2018-06-27T12:42:15.996Z,2.40
2018-06-27T12:43:16.023Z,2.10
2018-06-27T12:44:16.109Z,2.50
2018-06-27T12:45:16.079Z,2.50
2018-06-27T12:46:16.111Z,2.30
2018-06-27T12:47:16.136Z,2.00
2018-06-27T12:48:16.163Z,2.00
2018-06-27T12:49:16.193Z,2.40
2018-06-27T12:50:16.291Z,2.40
2018-06-27T12:51:16.248Z,2.00
2018-06-27T12:52:16.277Z,2.40
2018-06-27T12:53:16.307Z,2.30
2018-06-27T12:54:16.337Z,2.30
2018-06-27T12:55:16.361Z,2.20
2018-06-27T12:56:16.386Z,2.20
2018-06-27T12:57:16.417Z,2.10
2018-06-27T12:58:16.447Z,2.40
2018-06-27T12:59:16.470Z,2.10
2018-06-27T13:00:16.496Z,2.20
2018-06-27T13:01:16.524Z,2.30
2018-06-27T13:02:16.551Z,2.50
2018-06-27T13:03:16.606Z,2.20
2018-06-27T13:04:16.607Z,2.60
2018-06-27T13:05:16.633Z,2.10
2018-06-27T13:06:16.661Z,2.60
2018-06-27T13:07:16.688Z,2.20